Time;durP1;ratioP1;P1;durP2;ratioP2;P2;SDS_P1;SDS_P2;PMS_P1;PMS_P2;Temp;Humidity;BMP_temperature;BMP_pressure;BME280_temperature;BME280_humidity;BME280_pressure;Samples;Min_cycle;Max_cycle;Signal;HPM_P1;HPM_P2
2021/04/19 00:01:35;;;;;;;27.13;13.48;;;7.30;84.90;;;;;;4995233;28;20038;-56
2021/04/19 00:04:01;;;;;;;24.45;13.32;;;7.30;85.30;;;;;;5008284;28;20046;-54
2021/04/19 00:06:27;;;;;;;23.92;12.98;;;7.40;84.80;;;;;;4998066;28;20052;-52
2021/04/19 00:08:53;;;;;;;22.05;13.15;;;7.40;85.30;;;;;;5005818;28;20065;-51
2021/04/19 00:11:19;;;;;;;23.20;14.00;;;7.30;85.10;;;;;;5002470;28;20068;-55
2021/04/19 00:13:45;;;;;;;25.92;14.07;;;7.40;85.30;;;;;;5003366;28;20044;-52
2021/04/19 00:16:11;;;;;;;23.90;13.90;;;7.30;84.80;;;;;;5002965;28;20056;-55
2021/04/19 00:18:37;;;;;;;28.38;14.40;;;7.20;85.10;;;;;;5010245;28;20129;-54
2021/04/19 00:21:03;;;;;;;22.77;13.98;;;7.10;85.30;;;;;;5012152;28;20084;-54
2021/04/19 00:23:29;;;;;;;25.13;13.80;;;7.20;85.60;;;;;;5009284;28;20073;-53
2021/04/19 00:25:55;;;;;;;23.15;13.02;;;7.10;85.30;;;;;;4994169;28;20062;-51
2021/04/19 00:28:20;;;;;;;26.33;13.57;;;7.10;85.50;;;;;;4996865;28;20046;-54
2021/04/19 00:30:47;;;;;;;25.55;14.15;;;7.00;85.40;;;;;;5002396;28;20034;-56
2021/04/19 00:33:13;;;;;;;24.60;13.60;;;7.00;85.40;;;;;;5011813;28;20148;-54
2021/04/19 00:35:39;;;;;;;27.40;14.20;;;7.00;85.70;;;;;;5000764;28;20437;-54
2021/04/19 00:38:05;;;;;;;26.67;13.65;;;7.00;85.60;;;;;;5006559;28;20491;-53
2021/04/19 00:40:31;;;;;;;27.77;14.68;;;6.90;85.50;;;;;;4998368;28;20045;-52
2021/04/19 00:42:57;;;;;;;25.15;14.65;;;6.90;85.70;;;;;;5003131;28;20041;-52
2021/04/19 00:45:23;;;;;;;24.50;13.82;;;6.90;85.80;;;;;;5008884;28;20042;-51
2021/04/19 00:47:49;;;;;;;23.98;13.52;;;6.90;85.70;;;;;;5005245;28;20133;-53
2021/04/19 00:50:21;;;;;;;22.73;13.95;;;6.90;86.20;;;;;;5005904;28;20064;-52
2021/04/19 00:52:48;;;;;;;28.58;14.13;;;7.00;86.20;;;;;;4998452;28;20122;-52
2021/04/19 00:55:15;;;;;;;24.38;14.80;;;6.90;86.70;;;;;;4999399;28;20100;-52
2021/04/19 00:57:41;;;;;;;25.85;14.23;;;6.90;86.50;;;;;;4993725;28;20142;-52
2021/04/19 01:00:11;;;;;;;22.58;14.60;;;7.00;87.00;;;;;;4994042;28;20096;-55
2021/04/19 01:02:41;;;;;;;22.63;13.23;;;7.10;86.40;;;;;;5000328;28;20050;-52
2021/04/19 01:05:11;;;;;;;25.85;15.13;;;7.10;86.60;;;;;;5003335;28;20069;-53
2021/04/19 01:07:37;;;;;;;28.40;14.38;;;7.10;86.50;;;;;;5001155;28;20263;-51
2021/04/19 01:10:04;;;;;;;25.42;14.25;;;6.90;86.20;;;;;;5004568;28;20046;-54
2021/04/19 01:12:30;;;;;;;28.92;14.48;;;6.90;86.90;;;;;;5009583;28;20156;-52
2021/04/19 01:14:56;;;;;;;27.63;14.80;;;6.80;87.70;;;;;;5005822;28;20492;-51
2021/04/19 01:17:22;;;;;;;27.20;15.00;;;6.90;87.60;;;;;;5004666;28;20030;-54
2021/04/19 01:19:47;;;;;;;29.30;15.70;;;6.90;87.30;;;;;;5006521;28;20069;-56
2021/04/19 01:22:13;;;;;;;28.13;15.35;;;6.80;87.90;;;;;;5003826;28;20363;-53
2021/04/19 01:24:39;;;;;;;25.83;15.13;;;6.80;87.90;;;;;;4998477;28;20463;-52
2021/04/19 01:27:06;;;;;;;31.50;16.15;;;6.80;88.00;;;;;;4997759;28;20105;-52
2021/04/19 01:29:32;;;;;;;27.30;15.38;;;6.80;87.80;;;;;;4996300;28;20030;-52
2021/04/19 01:31:58;;;;;;;29.58;16.77;;;6.70;87.90;;;;;;5000308;28;20491;-53
2021/04/19 01:34:24;;;;;;;27.40;15.77;;;6.70;87.90;;;;;;5003522;28;20046;-52
2021/04/19 01:36:50;;;;;;;27.20;16.85;;;6.70;87.80;;;;;;4995794;28;20044;-52
2021/04/19 01:39:17;;;;;;;26.77;16.15;;;6.70;88.40;;;;;;5004503;28;20046;-52
2021/04/19 01:41:44;;;;;;;28.48;15.40;;;6.80;88.30;;;;;;5009397;28;20037;-53
2021/04/19 01:44:11;;;;;;;26.20;16.15;;;6.70;87.80;;;;;;5007378;28;20050;-53
2021/04/19 01:46:37;;;;;;;30.13;16.38;;;6.80;88.20;;;;;;4998959;28;20040;-52
2021/04/19 01:49:12;;;;;;;26.20;15.52;;;6.80;88.00;;;;;;4998749;28;20045;-52
2021/04/19 01:51:38;;;;;;;25.00;16.25;;;6.80;88.00;;;;;;4984793;28;20049;-51
2021/04/19 01:54:04;;;;;;;28.88;16.33;;;6.80;88.10;;;;;;4994779;28;20043;-51
2021/04/19 01:56:29;;;;;;;29.10;15.82;;;6.90;88.40;;;;;;5003916;28;20061;-52
2021/04/19 01:58:56;;;;;;;24.58;16.33;;;6.90;88.30;;;;;;4998260;28;20050;-52
2021/04/19 02:01:22;;;;;;;25.75;16.30;;;6.90;88.50;;;;;;4999678;28;20070;-53
2021/04/19 02:04:04;;;;;;;28.98;16.48;;;6.90;88.40;;;;;;5003483;28;20042;-51
2021/04/19 02:07:06;;;;;;;28.92;16.63;;;7.00;88.30;;;;;;4996317;28;20042;-53
2021/04/19 02:09:46;;;;;;;30.02;16.85;;;7.00;88.40;;;;;;4996397;28;20566;-51
2021/04/19 02:12:22;;;;;;;27.23;17.27;;;7.00;87.90;;;;;;4991506;28;20038;-52
2021/04/19 02:14:57;;;;;;;28.48;16.50;;;7.00;88.30;;;;;;5002750;28;20078;-53
2021/04/19 02:17:36;;;;;;;28.00;16.70;;;7.00;88.50;;;;;;5008861;28;20042;-52
2021/04/19 02:20:12;;;;;;;30.27;17.65;;;7.00;88.20;;;;;;5010214;28;20049;-55
2021/04/19 02:22:46;;;;;;;30.55;16.77;;;7.10;88.70;;;;;;5005308;28;20046;-55
2021/04/19 02:25:37;;;;;;;27.63;17.20;;;7.10;88.50;;;;;;4997994;28;20475;-52
2021/04/19 02:28:06;;;;;;;28.27;16.85;;;7.10;88.50;;;;;;5005542;28;20030;-53
2021/04/19 02:30:35;;;;;;;30.73;16.65;;;7.10;88.50;;;;;;5008799;28;20038;-56
2021/04/19 02:33:03;;;;;;;26.10;16.88;;;7.20;89.00;;;;;;5000074;28;20038;-55
2021/04/19 02:35:32;;;;;;;30.88;18.27;;;7.20;88.90;;;;;;4993688;28;20184;-54
2021/04/19 02:37:59;;;;;;;30.88;18.48;;;7.20;88.50;;;;;;4997810;28;20406;-53
2021/04/19 02:40:27;;;;;;;30.52;18.30;;;7.20;88.80;;;;;;4999258;28;20049;-53
2021/04/19 02:42:55;;;;;;;26.35;16.83;;;7.20;88.60;;;;;;5000601;28;20466;-55
2021/04/19 02:45:22;;;;;;;29.73;17.75;;;7.30;88.70;;;;;;5015079;28;20053;-56
2021/04/19 02:47:49;;;;;;;31.15;17.60;;;7.30;88.60;;;;;;4996038;28;20042;-54
2021/04/19 02:50:22;;;;;;;27.15;16.35;;;7.30;88.80;;;;;;5005267;28;20038;-56
2021/04/19 02:52:50;;;;;;;26.02;16.85;;;7.30;88.80;;;;;;5001179;28;20398;-52
2021/04/19 02:55:19;;;;;;;29.75;17.13;;;7.30;88.90;;;;;;5001041;28;20050;-56
2021/04/19 02:57:56;;;;;;;28.52;17.00;;;7.30;88.60;;;;;;4994447;28;20642;-54
2021/04/19 03:00:25;;;;;;;30.05;17.20;;;7.40;88.80;;;;;;5001162;28;20141;-54
2021/04/19 03:02:54;;;;;;;30.23;17.25;;;7.40;88.40;;;;;;5001951;28;20382;-55
2021/04/19 03:05:20;;;;;;;28.40;17.77;;;7.40;88.80;;;;;;5011674;28;20061;-53
2021/04/19 03:07:55;;;;;;;31.38;18.05;;;7.40;88.80;;;;;;4999276;28;20049;-53
2021/04/19 03:10:23;;;;;;;29.60;17.55;;;7.40;89.00;;;;;;4998949;28;20046;-55
2021/04/19 03:12:53;;;;;;;31.77;17.17;;;7.40;88.90;;;;;;5003715;28;20042;-55
2021/04/19 03:15:24;;;;;;;31.13;18.60;;;7.40;89.10;;;;;;5009078;28;20117;-55
2021/04/19 03:17:52;;;;;;;30.38;17.52;;;7.50;89.10;;;;;;5005505;28;20042;-55
2021/04/19 03:20:22;;;;;;;28.52;17.98;;;7.50;89.10;;;;;;4999980;28;20126;-55
2021/04/19 03:22:49;;;;;;;26.77;17.65;;;7.50;89.20;;;;;;5005071;28;20038;-55
2021/04/19 03:25:16;;;;;;;29.92;18.27;;;7.60;89.10;;;;;;4999415;28;20078;-54
2021/04/19 03:27:44;;;;;;;29.70;17.80;;;7.60;89.40;;;;;;5001309;28;20101;-52
2021/04/19 03:30:12;;;;;;;28.05;17.52;;;7.70;89.20;;;;;;4997720;28;20034;-52
2021/04/19 03:32:43;;;;;;;26.73;17.45;;;7.60;89.10;;;;;;4994354;28;20441;-55
2021/04/19 03:35:13;;;;;;;29.10;18.02;;;7.70;89.50;;;;;;4999809;28;20101;-53
2021/04/19 03:37:41;;;;;;;30.45;18.77;;;7.70;88.80;;;;;;5000036;28;20076;-53
2021/04/19 03:40:21;;;;;;;31.92;18.45;;;7.70;89.10;;;;;;4997625;28;20095;-54
2021/04/19 03:42:50;;;;;;;31.00;18.05;;;7.70;89.40;;;;;;4997779;28;20129;-53
2021/04/19 03:45:17;;;;;;;26.85;16.75;;;7.60;89.30;;;;;;5001257;28;20129;-55
2021/04/19 03:47:46;;;;;;;29.30;18.27;;;7.70;89.50;;;;;;5000928;28;20034;-52
2021/04/19 03:50:12;;;;;;;29.02;18.33;;;7.80;89.00;;;;;;4995685;28;20069;-55
2021/04/19 03:52:43;;;;;;;29.50;18.88;;;7.70;89.00;;;;;;4998067;28;20145;-55
2021/04/19 03:55:12;;;;;;;31.85;19.30;;;7.70;89.50;;;;;;4993374;28;20049;-55
2021/04/19 03:57:41;;;;;;;28.70;18.10;;;7.70;89.40;;;;;;5001124;28;20060;-55
2021/04/19 04:00:11;;;;;;;29.40;18.55;;;7.70;90.00;;;;;;5006441;28;20451;-55
2021/04/19 04:02:39;;;;;;;31.15;18.05;;;7.70;89.90;;;;;;5004216;28;20034;-55
2021/04/19 04:05:06;;;;;;;26.65;17.60;;;7.80;89.70;;;;;;4998241;28;20120;-55
2021/04/19 04:07:34;;;;;;;29.67;18.75;;;7.80;90.00;;;;;;4999426;28;20045;-53
2021/04/19 04:10:03;;;;;;;31.05;19.23;;;7.80;90.00;;;;;;5007540;28;20088;-55
2021/04/19 04:12:29;;;;;;;27.98;18.23;;;7.80;89.90;;;;;;4998995;28;20037;-55
2021/04/19 04:14:56;;;;;;;31.33;19.30;;;7.80;90.10;;;;;;5011395;28;20085;-55
2021/04/19 04:17:22;;;;;;;29.08;18.70;;;7.80;90.00;;;;;;5001492;28;20571;-54
2021/04/19 04:19:48;;;;;;;30.17;19.02;;;7.80;90.10;;;;;;5001915;28;20031;-56
2021/04/19 04:22:16;;;;;;;31.10;20.08;;;7.80;90.10;;;;;;5000048;28;20487;-55
2021/04/19 04:24:42;;;;;;;28.75;19.23;;;7.80;90.00;;;;;;4995995;28;20046;-55
2021/04/19 04:27:09;;;;;;;31.77;18.08;;;7.80;90.30;;;;;;5000580;28;20030;-55
2021/04/19 04:29:35;;;;;;;31.60;18.58;;;7.80;90.10;;;;;;5000172;28;20054;-55
2021/04/19 04:32:01;;;;;;;35.40;19.27;;;7.90;90.20;;;;;;4998663;28;20577;-55
2021/04/19 04:34:26;;;;;;;30.00;19.13;;;7.80;90.10;;;;;;4997600;28;20042;-55
2021/04/19 04:36:52;;;;;;;30.08;18.02;;;7.80;90.30;;;;;;5004140;28;20046;-54
2021/04/19 04:39:18;;;;;;;26.17;17.50;;;8.00;90.10;;;;;;4998570;28;20042;-49
2021/04/19 04:41:43;;;;;;;32.13;19.30;;;8.10;90.10;;;;;;5012486;28;20056;-53
2021/04/19 04:44:13;;;;;;;30.50;19.48;;;8.10;89.60;;;;;;5000418;28;20045;-53
2021/04/19 04:46:57;;;;;;;28.55;17.95;;;8.00;90.00;;;;;;4982507;28;20477;-53
2021/04/19 04:49:26;;;;;;;28.13;18.35;;;8.00;90.20;;;;;;4998817;28;20061;-53
2021/04/19 04:51:55;;;;;;;28.15;18.15;;;8.00;90.00;;;;;;5004979;28;20105;-53
2021/04/19 04:54:23;;;;;;;27.30;17.67;;;8.10;90.10;;;;;;5006487;28;20121;-52
2021/04/19 04:56:52;;;;;;;27.42;17.42;;;8.10;90.30;;;;;;4994577;28;20511;-52
2021/04/19 04:59:23;;;;;;;26.50;17.95;;;8.10;90.10;;;;;;5005408;28;20038;-53
2021/04/19 05:01:50;;;;;;;27.20;17.52;;;8.10;90.10;;;;;;5003743;28;20072;-53
2021/04/19 05:04:16;;;;;;;28.55;17.52;;;8.10;90.10;;;;;;5003051;28;20046;-51
2021/04/19 05:06:43;;;;;;;28.15;17.70;;;8.20;90.10;;;;;;4994003;28;20100;-54
2021/04/19 05:09:10;;;;;;;24.95;17.20;;;8.20;90.10;;;;;;4991737;28;20038;-55
2021/04/19 05:11:41;;;;;;;27.80;18.08;;;8.30;90.00;;;;;;5003841;28;20046;-54
2021/04/19 05:14:07;;;;;;;28.52;17.35;;;8.30;90.00;;;;;;5001616;28;20133;-53
2021/04/19 05:16:32;;;;;;;30.70;17.75;;;8.40;90.00;;;;;;5000161;28;20118;-53
2021/04/19 05:19:03;;;;;;;28.08;17.50;;;8.40;89.80;;;;;;4996398;28;20402;-51
2021/04/19 05:21:29;;;;;;;28.15;17.73;;;8.50;90.00;;;;;;4993704;28;20447;-53
2021/04/19 05:23:55;;;;;;;27.42;17.63;;;8.50;89.60;;;;;;5000272;28;20134;-53
2021/04/19 05:26:21;;;;;;;25.02;16.17;;;8.60;89.60;;;;;;4998047;28;20423;-53
2021/04/19 05:28:48;;;;;;;28.00;16.52;;;8.80;88.80;;;;;;4999203;28;20035;-53
2021/04/19 05:31:14;;;;;;;28.50;16.85;;;8.90;87.90;;;;;;5002580;28;20391;-51
2021/04/19 05:33:40;;;;;;;25.77;15.75;;;9.00;87.60;;;;;;4992430;28;20133;-55
2021/04/19 05:36:08;;;;;;;25.02;16.02;;;9.10;87.40;;;;;;5003603;28;20105;-53
2021/04/19 05:38:35;;;;;;;23.30;15.40;;;9.20;87.00;;;;;;4997229;28;20034;-52
2021/04/19 05:41:01;;;;;;;24.55;15.38;;;9.40;86.30;;;;;;5007251;28;20045;-55
2021/04/19 05:43:26;;;;;;;22.95;15.35;;;9.50;85.80;;;;;;4995504;28;20066;-51
2021/04/19 05:45:54;;;;;;;21.73;14.65;;;9.60;84.80;;;;;;4996443;28;20076;-57
2021/04/19 05:48:20;;;;;;;27.88;14.88;;;9.80;84.70;;;;;;5000022;28;20034;-53
2021/04/19 05:50:48;;;;;;;21.52;12.63;;;10.00;83.50;;;;;;4997941;28;20140;-49
2021/04/19 05:53:14;;;;;;;23.40;14.43;;;10.30;81.70;;;;;;5002056;28;20054;-52
2021/04/19 05:55:42;;;;;;;22.73;13.13;;;10.30;81.40;;;;;;5001088;28;20044;-53
2021/04/19 05:58:47;;;;;;;22.15;12.95;;;10.40;81.10;;;;;;5008554;28;20100;-50
2021/04/19 06:01:17;;;;;;;21.63;13.70;;;10.60;80.20;;;;;;4988851;28;20046;-50
2021/04/19 06:03:56;;;;;;;22.38;13.25;;;10.50;80.00;;;;;;4999647;28;20053;-53
2021/04/19 06:06:46;;;;;;;22.65;13.80;;;10.20;80.40;;;;;;4997693;28;20597;-49
2021/04/19 06:09:28;;;;;;;21.92;12.82;;;10.00;81.40;;;;;;5000865;28;20495;-53
2021/04/19 06:12:00;;;;;;;21.65;12.82;;;9.80;82.70;;;;;;4996611;28;20092;-51
2021/04/19 06:14:34;;;;;;;19.73;12.27;;;9.60;82.90;;;;;;5003532;28;20038;-53
2021/04/19 06:17:02;;;;;;;20.52;13.05;;;9.60;83.80;;;;;;5004892;28;20048;-54
2021/04/19 06:19:29;;;;;;;23.98;13.23;;;9.40;84.00;;;;;;5003265;28;20046;-51
2021/04/19 06:21:55;;;;;;;27.33;14.70;;;9.40;84.60;;;;;;5007144;28;20052;-52
2021/04/19 06:24:21;;;;;;;22.33;13.18;;;9.40;84.90;;;;;;5002317;28;20046;-52
2021/04/19 06:26:48;;;;;;;21.45;12.93;;;9.60;84.40;;;;;;5011155;28;20045;-53
2021/04/19 06:29:14;;;;;;;20.65;13.63;;;9.90;83.70;;;;;;5003454;28;20056;-53
2021/04/19 06:31:47;;;;;;;21.38;12.63;;;10.00;83.10;;;;;;5005268;28;20113;-54
2021/04/19 06:34:15;;;;;;;20.88;13.00;;;10.00;82.10;;;;;;5012421;28;20046;-53
2021/04/19 06:36:42;;;;;;;19.30;13.07;;;10.10;81.90;;;;;;5005780;28;20046;-54
2021/04/19 06:39:11;;;;;;;22.92;13.52;;;10.10;82.50;;;;;;5010379;28;20592;-52
2021/04/19 06:41:37;;;;;;;21.58;13.52;;;10.20;82.40;;;;;;5007608;28;20065;-53
2021/04/19 06:44:04;;;;;;;21.95;13.57;;;10.30;81.90;;;;;;5012029;28;20068;-54
2021/04/19 06:46:35;;;;;;;28.00;14.15;;;10.40;82.10;;;;;;5003363;28;20205;-53
2021/04/19 06:49:02;;;;;;;21.83;14.02;;;10.50;81.40;;;;;;5008666;28;20061;-54
2021/04/19 06:51:30;;;;;;;21.83;13.32;;;10.60;81.10;;;;;;5009352;28;20034;-52
2021/04/19 06:53:57;;;;;;;19.58;13.10;;;10.70;81.30;;;;;;5004965;28;20565;-52
2021/04/19 06:56:26;;;;;;;22.30;13.18;;;10.80;81.20;;;;;;5007106;28;20076;-51
2021/04/19 06:58:52;;;;;;;21.02;12.90;;;10.80;80.30;;;;;;5009873;28;20413;-52
2021/04/19 07:01:23;;;;;;;20.60;13.10;;;10.90;80.00;;;;;;5011091;28;20052;-52
2021/04/19 07:03:54;;;;;;;20.35;12.50;;;10.90;79.90;;;;;;5008170;28;20048;-52
2021/04/19 07:06:22;;;;;;;18.48;12.88;;;11.00;80.30;;;;;;5006539;28;20030;-54
2021/04/19 07:08:48;;;;;;;19.08;12.77;;;11.10;79.20;;;;;;5005810;28;20049;-54
2021/04/19 07:11:18;;;;;;;22.00;12.70;;;11.10;78.90;;;;;;4997365;28;20046;-54
2021/04/19 07:13:45;;;;;;;22.20;13.75;;;11.10;78.60;;;;;;5003026;28;20084;-52
2021/04/19 07:16:11;;;;;;;22.33;13.52;;;11.20;78.20;;;;;;5009362;28;20042;-52
2021/04/19 07:18:38;;;;;;;21.77;12.85;;;11.10;78.80;;;;;;4999938;28;20034;-54
2021/04/19 07:21:05;;;;;;;23.50;13.68;;;11.10;79.40;;;;;;4999388;28;20168;-54
2021/04/19 07:23:36;;;;;;;19.98;13.50;;;11.10;78.70;;;;;;5006761;28;20050;-54
2021/04/19 07:26:03;;;;;;;23.85;14.20;;;11.20;78.80;;;;;;5006321;28;20042;-54
2021/04/19 07:28:35;;;;;;;25.70;13.90;;;11.20;79.10;;;;;;5000969;28;20107;-55
2021/04/19 07:31:01;;;;;;;23.90;13.68;;;11.30;79.10;;;;;;5001806;28;20475;-55
2021/04/19 07:33:28;;;;;;;20.13;13.93;;;11.40;79.40;;;;;;5004406;28;20049;-54
2021/04/19 07:35:54;;;;;;;20.23;13.50;;;11.50;79.40;;;;;;5001190;28;20415;-52
2021/04/19 07:38:33;;;;;;;21.75;13.15;;;11.50;77.90;;;;;;5001883;28;20081;-52
2021/04/19 07:40:59;;;;;;;19.70;12.88;;;11.70;78.00;;;;;;4999773;28;20069;-53
2021/04/19 07:43:25;;;;;;;20.13;12.98;;;11.70;78.40;;;;;;5007771;28;20054;-54
2021/04/19 07:46:01;;;;;;;19.63;13.23;;;11.80;78.80;;;;;;4997408;28;20058;-52
2021/04/19 07:48:31;;;;;;;19.20;12.82;;;11.80;78.50;;;;;;5002625;28;20088;-52
2021/04/19 07:50:57;;;;;;;24.17;13.68;;;11.90;77.50;;;;;;5005940;28;20503;-55
2021/04/19 07:53:23;;;;;;;21.80;13.23;;;12.00;77.40;;;;;;5002470;28;20417;-52
2021/04/19 07:55:52;;;;;;;21.13;13.40;;;11.90;77.50;;;;;;4978299;28;20050;-53
2021/04/19 07:58:23;;;;;;;19.20;12.45;;;12.00;77.50;;;;;;5000795;28;20565;-55
2021/04/19 08:01:02;;;;;;;22.83;12.80;;;12.10;77.10;;;;;;5004772;28;20049;-51
2021/04/19 08:03:39;;;;;;;18.63;12.73;;;12.10;76.40;;;;;;5003197;28;20049;-54
2021/04/19 08:06:21;;;;;;;20.88;13.60;;;12.10;77.10;;;;;;4999805;28;22288;-55
2021/04/19 08:08:48;;;;;;;20.13;13.35;;;12.00;77.00;;;;;;5004092;28;20045;-54
2021/04/19 08:11:16;;;;;;;19.10;12.77;;;12.10;76.60;;;;;;5006027;28;20034;-54
2021/04/19 08:13:43;;;;;;;18.42;12.60;;;12.20;76.70;;;;;;5004927;28;20096;-55
2021/04/19 08:16:26;;;;;;;20.88;13.82;;;12.30;75.60;;;;;;5005174;28;20041;-55
2021/04/19 08:19:02;;;;;;;19.13;13.57;;;12.30;77.00;;;;;;5001346;28;20105;-53
2021/04/19 08:21:28;;;;;;;19.17;13.40;;;12.50;76.70;;;;;;5008214;28;20108;-55
2021/04/19 08:23:55;;;;;;;18.55;12.48;;;12.60;76.60;;;;;;4998697;28;20065;-54
2021/04/19 08:26:20;;;;;;;18.20;13.05;;;12.80;76.30;;;;;;5000418;28;20042;-53
2021/04/19 08:28:48;;;;;;;18.75;13.68;;;12.90;75.80;;;;;;5007231;28;20482;-54
2021/04/19 08:31:15;;;;;;;18.92;12.77;;;12.90;74.90;;;;;;5002111;28;20164;-53
2021/04/19 08:33:45;;;;;;;20.85;14.50;;;13.00;74.60;;;;;;4996489;28;20073;-54
2021/04/19 08:36:12;;;;;;;17.02;12.32;;;13.00;75.50;;;;;;5000821;28;20046;-54
2021/04/19 08:38:38;;;;;;;17.85;13.55;;;13.10;74.10;;;;;;5003151;28;20414;-55
2021/04/19 08:41:05;;;;;;;16.73;13.35;;;13.10;73.30;;;;;;5001290;28;20050;-53
2021/04/19 08:43:36;;;;;;;20.00;14.73;;;13.20;73.30;;;;;;5002919;28;20049;-55
2021/04/19 08:46:04;;;;;;;19.40;14.63;;;13.20;73.50;;;;;;5005553;28;20041;-52
2021/04/19 08:48:31;;;;;;;19.65;14.43;;;13.30;73.80;;;;;;5001577;28;20133;-54
2021/04/19 08:51:01;;;;;;;17.83;13.63;;;13.30;73.40;;;;;;5005575;28;20037;-51
2021/04/19 08:53:27;;;;;;;19.77;14.25;;;13.40;71.70;;;;;;5005686;28;20038;-54
2021/04/19 08:55:53;;;;;;;20.88;14.77;;;13.40;72.30;;;;;;4999017;28;20120;-51
2021/04/19 08:58:19;;;;;;;18.73;14.02;;;13.50;71.00;;;;;;5002836;28;20094;-53
2021/04/19 09:00:51;;;;;;;20.65;14.38;;;13.40;72.40;;;;;;5003191;28;20065;-52
2021/04/19 09:03:21;;;;;;;21.15;13.82;;;13.50;72.90;;;;;;4998675;28;20046;-53
2021/04/19 09:05:48;;;;;;;22.15;13.60;;;13.70;70.80;;;;;;5001816;28;20054;-54
2021/04/19 09:08:21;;;;;;;19.80;13.30;;;13.70;70.10;;;;;;5000824;28;20049;-55
2021/04/19 09:10:56;;;;;;;18.23;13.40;;;13.50;71.40;;;;;;4975748;28;20042;-53
2021/04/19 09:13:39;;;;;;;15.10;12.25;;;13.70;71.80;;;;;;5002810;28;20048;-51
2021/04/19 09:16:15;;;;;;;18.13;12.07;;;13.70;71.40;;;;;;5004733;28;20133;-55
2021/04/19 09:18:45;;;;;;;19.50;13.10;;;13.70;70.90;;;;;;4999627;28;20100;-55
2021/04/19 09:21:38;;;;;;;14.48;11.73;;;13.80;70.40;;;;;;5003248;28;20061;-52
2021/04/19 09:24:09;;;;;;;15.27;11.75;;;13.80;70.30;;;;;;5004078;28;20042;-55
2021/04/19 09:26:43;;;;;;;16.92;11.63;;;13.70;70.10;;;;;;5002749;28;20139;-54
2021/04/19 09:29:09;;;;;;;19.10;12.25;;;13.80;70.00;;;;;;5001578;28;20472;-52
2021/04/19 09:32:06;;;;;;;19.95;12.40;;;13.80;71.00;;;;;;5001721;28;20133;-55
2021/04/19 09:34:52;;;;;;;17.30;13.07;;;13.80;70.90;;;;;;5002410;28;20088;-55
2021/04/19 09:37:35;;;;;;;18.05;12.48;;;13.80;71.20;;;;;;4993668;28;20065;-51
2021/04/19 09:40:06;;;;;;;17.02;12.45;;;13.80;70.50;;;;;;5001013;28;20046;-52
2021/04/19 09:43:02;;;;;;;17.65;12.75;;;13.90;71.10;;;;;;5004011;28;20603;-51
2021/04/19 09:45:48;;;;;;;19.25;12.75;;;14.30;69.70;;;;;;4996698;28;20093;-51
2021/04/19 09:48:26;;;;;;;15.93;11.68;;;14.40;68.80;;;;;;5003182;28;20045;-55
2021/04/19 09:50:56;;;;;;;17.35;12.98;;;14.40;68.60;;;;;;5008641;28;20133;-55
2021/04/19 09:53:22;;;;;;;18.35;13.40;;;14.30;69.80;;;;;;5000735;28;20517;-51
2021/04/19 09:55:49;;;;;;;18.70;12.20;;;14.20;69.00;;;;;;4996459;28;20046;-53
2021/04/19 09:58:15;;;;;;;15.95;12.63;;;14.20;68.70;;;;;;5005922;28;20045;-55
2021/04/19 10:00:42;;;;;;;17.90;12.85;;;14.00;68.90;;;;;;5002534;28;20120;-51
2021/04/19 10:03:08;;;;;;;18.23;13.82;;;13.90;69.80;;;;;;5006139;28;20485;-53
2021/04/19 10:05:36;;;;;;;18.42;12.98;;;13.80;70.00;;;;;;4996070;28;20053;-53
2021/04/19 10:08:05;;;;;;;18.52;12.30;;;13.70;70.90;;;;;;4996746;28;20045;-54
2021/04/19 10:10:32;;;;;;;16.83;11.73;;;13.80;70.60;;;;;;4999934;28;20042;-55
2021/04/19 10:12:58;;;;;;;14.65;11.18;;;14.00;69.00;;;;;;4995654;28;20505;-52
2021/04/19 10:15:27;;;;;;;14.43;11.27;;;14.30;67.90;;;;;;5000031;28;20038;-54
2021/04/19 10:17:53;;;;;;;15.57;11.70;;;14.50;66.60;;;;;;5002431;28;20030;-55
2021/04/19 10:20:25;;;;;;;15.05;11.70;;;14.70;66.50;;;;;;4995127;28;20050;-51
2021/04/19 10:23:33;;;;;;;16.17;11.85;;;14.90;66.00;;;;;;5000720;28;20077;-55
2021/04/19 10:25:59;;;;;;;15.88;12.70;;;14.80;65.30;;;;;;4924410;29;20095;-56
2021/04/19 10:28:33;;;;;;;17.90;12.35;;;14.70;65.90;;;;;;4992476;28;20058;-52
2021/04/19 10:31:09;;;;;;;16.25;12.68;;;14.50;66.40;;;;;;4999557;28;20379;-54
2021/04/19 10:33:36;;;;;;;16.88;12.15;;;14.40;67.10;;;;;;5002817;28;20041;-55
2021/04/19 10:36:31;;;;;;;17.35;12.23;;;14.50;68.50;;;;;;4999899;28;20042;-51
2021/04/19 10:38:59;;;;;;;20.48;13.15;;;14.50;66.00;;;;;;4998531;28;20045;-51
2021/04/19 10:41:34;;;;;;;18.73;12.30;;;14.50;66.90;;;;;;5004189;28;20038;-52
2021/04/19 10:44:01;;;;;;;17.75;12.15;;;14.60;66.50;;;;;;4990729;28;20562;-54
2021/04/19 10:46:35;;;;;;;13.35;10.05;;;14.70;65.40;;;;;;4995227;28;20042;-52
2021/04/19 10:49:02;;;;;;;14.23;11.63;;;14.80;63.00;;;;;;5001439;28;20141;-53
2021/04/19 10:51:36;;;;;;;14.68;11.45;;;14.70;64.20;;;;;;5000209;28;20042;-50
2021/04/19 10:54:10;;;;;;;14.75;11.90;;;14.50;65.60;;;;;;4998053;28;20383;-53
2021/04/19 10:56:39;;;;;;;14.85;11.18;;;14.50;65.80;;;;;;5002453;28;20452;-53
2021/04/19 10:59:10;;;;;;;17.30;11.82;;;14.50;65.10;;;;;;5007836;28;20037;-53
2021/04/19 11:01:38;;;;;;;16.33;11.73;;;14.50;65.80;;;;;;4998962;28;20109;-52
2021/04/19 11:04:06;;;;;;;15.50;11.95;;;14.50;65.20;;;;;;5004876;28;20041;-54
2021/04/19 11:06:36;;;;;;;16.08;11.45;;;14.30;65.60;;;;;;4997886;28;20461;-53
2021/04/19 11:09:06;;;;;;;16.70;12.10;;;14.30;66.40;;;;;;4992612;28;20041;-54
2021/04/19 11:11:38;;;;;;;15.45;10.15;;;14.30;66.20;;;;;;4999452;28;20049;-54
2021/04/19 11:14:16;;;;;;;16.73;12.27;;;14.30;65.50;;;;;;4999524;28;20116;-54
2021/04/19 11:17:02;;;;;;;15.77;11.82;;;14.20;66.10;;;;;;4996065;28;20046;-55
2021/04/19 11:19:43;;;;;;;14.75;10.98;;;14.20;67.30;;;;;;5010909;28;20038;-50
2021/04/19 11:22:34;;;;;;;15.27;11.13;;;14.30;65.20;;;;;;5003280;28;20092;-57
2021/04/19 11:25:19;;;;;;;13.60;10.90;;;14.30;65.10;;;;;;4998145;28;20744;-53
2021/04/19 11:27:48;;;;;;;14.35;11.30;;;14.10;67.20;;;;;;5002499;28;20038;-54
2021/04/19 11:30:26;;;;;;;15.75;11.90;;;14.10;67.50;;;;;;5006853;28;20042;-51
2021/04/19 11:33:10;;;;;;;13.52;10.48;;;14.20;67.40;;;;;;5000713;28;20038;-53
2021/04/19 11:35:41;;;;;;;13.38;10.50;;;14.40;67.90;;;;;;5000791;28;20110;-53
2021/04/19 11:38:10;;;;;;;15.98;11.23;;;14.50;66.50;;;;;;5002767;28;20084;-51
2021/04/19 11:40:42;;;;;;;16.52;12.38;;;14.60;65.80;;;;;;5005264;28;20034;-52
2021/04/19 11:43:25;;;;;;;16.33;12.07;;;14.50;65.60;;;;;;5009728;28;20037;-53
2021/04/19 11:46:04;;;;;;;15.95;12.35;;;14.40;65.90;;;;;;5005324;28;20140;-50
2021/04/19 11:48:31;;;;;;;16.25;12.38;;;14.30;66.40;;;;;;5005996;28;20042;-55
2021/04/19 11:50:58;;;;;;;18.50;12.15;;;14.30;65.70;;;;;;5007073;28;20561;-51
2021/04/19 11:53:27;;;;;;;18.20;11.63;;;14.20;65.80;;;;;;5009401;28;20038;-50
2021/04/19 11:55:54;;;;;;;16.15;11.05;;;14.40;66.00;;;;;;5013085;28;20042;-54
2021/04/19 11:58:19;;;;;;;15.18;11.45;;;14.60;65.60;;;;;;5008388;28;20091;-50
2021/04/19 12:00:48;;;;;;;15.02;10.95;;;14.70;64.30;;;;;;5011361;28;20037;-54
2021/04/19 12:03:15;;;;;;;16.92;11.52;;;14.80;64.00;;;;;;5003414;28;20098;-51
2021/04/19 12:05:40;;;;;;;15.73;11.60;;;14.90;64.60;;;;;;5005518;28;20054;-53
2021/04/19 12:08:06;;;;;;;13.90;10.48;;;15.00;62.80;;;;;;5007408;28;20535;-53
2021/04/19 12:10:32;;;;;;;14.95;10.80;;;15.10;63.10;;;;;;5009020;28;20065;-50
2021/04/19 12:12:57;;;;;;;15.15;11.30;;;15.10;62.70;;;;;;5010084;28;20054;-52
2021/04/19 12:15:24;;;;;;;17.67;11.65;;;15.10;62.80;;;;;;5007986;28;20389;-53
2021/04/19 12:17:50;;;;;;;17.08;12.38;;;15.10;63.20;;;;;;5005594;28;20116;-54
2021/04/19 12:20:15;;;;;;;16.35;12.32;;;15.00;63.30;;;;;;5008944;28;20467;-52
2021/04/19 12:22:42;;;;;;;15.80;12.13;;;14.80;62.10;;;;;;5008580;28;20112;-53
2021/04/19 12:25:08;;;;;;;16.25;11.77;;;14.80;62.90;;;;;;5002830;28;20034;-53
2021/04/19 12:27:35;;;;;;;22.33;12.43;;;14.80;64.10;;;;;;4997803;28;20095;-56
2021/04/19 12:30:01;;;;;;;16.83;12.25;;;14.90;63.10;;;;;;4976691;28;20089;-53
2021/04/19 12:32:27;;;;;;;16.25;11.80;;;14.90;61.60;;;;;;5006527;28;20034;-51
2021/04/19 12:34:52;;;;;;;13.98;10.80;;;14.90;62.00;;;;;;4997039;28;20042;-52
2021/04/19 12:37:18;;;;;;;16.17;12.27;;;14.90;62.20;;;;;;4999961;28;20039;-52
2021/04/19 12:39:43;;;;;;;15.10;11.93;;;14.90;62.50;;;;;;5001336;28;20482;-50
2021/04/19 12:42:09;;;;;;;16.45;11.02;;;14.90;62.80;;;;;;5002161;28;20096;-55
2021/04/19 12:44:36;;;;;;;14.98;11.32;;;15.00;62.10;;;;;;5000316;28;20486;-51